sensor_id;sensor_type;location;lat;lon;timestamp;P1;durP1;ratioP1;P2;durP2;ratioP2
19183;SDS011;9724;51.194;6.856;2023-10-13T00:01:02;13.93;;;8.73;;
19183;SDS011;9724;51.194;6.856;2023-10-13T00:03:32;16.97;;;8.60;;
19183;SDS011;9724;51.194;6.856;2023-10-13T00:05:58;15.40;;;9.20;;
19183;SDS011;9724;51.194;6.856;2023-10-13T00:08:29;15.37;;;8.63;;
19183;SDS011;9724;51.194;6.856;2023-10-13T00:10:55;12.37;;;8.37;;
19183;SDS011;9724;51.194;6.856;2023-10-13T00:13:27;13.23;;;7.47;;
19183;SDS011;9724;51.194;6.856;2023-10-13T00:15:55;11.73;;;8.00;;
19183;SDS011;9724;51.194;6.856;2023-10-13T00:18:25;13.37;;;8.23;;
19183;SDS011;9724;51.194;6.856;2023-10-13T00:21:00;14.67;;;8.43;;
19183;SDS011;9724;51.194;6.856;2023-10-13T00:23:29;10.80;;;7.60;;
19183;SDS011;9724;51.194;6.856;2023-10-13T00:25:59;16.60;;;8.50;;
19183;SDS011;9724;51.194;6.856;2023-10-13T00:28:28;14.10;;;8.23;;
19183;SDS011;9724;51.194;6.856;2023-10-13T00:31:01;17.70;;;8.27;;
19183;SDS011;9724;51.194;6.856;2023-10-13T00:33:37;11.57;;;8.03;;
19183;SDS011;9724;51.194;6.856;2023-10-13T00:36:04;11.90;;;7.80;;
19183;SDS011;9724;51.194;6.856;2023-10-13T00:38:33;13.57;;;7.47;;
19183;SDS011;9724;51.194;6.856;2023-10-13T00:41:00;15.97;;;7.87;;
19183;SDS011;9724;51.194;6.856;2023-10-13T00:43:30;15.13;;;7.33;;
19183;SDS011;9724;51.194;6.856;2023-10-13T00:46:01;9.87;;;6.97;;
19183;SDS011;9724;51.194;6.856;2023-10-13T00:48:35;8.70;;;7.00;;
19183;SDS011;9724;51.194;6.856;2023-10-13T00:51:09;13.77;;;7.40;;
19183;SDS011;9724;51.194;6.856;2023-10-13T00:53:43;14.97;;;7.50;;
19183;SDS011;9724;51.194;6.856;2023-10-13T00:56:10;14.70;;;7.53;;
19183;SDS011;9724;51.194;6.856;2023-10-13T00:58:45;10.53;;;7.17;;
19183;SDS011;9724;51.194;6.856;2023-10-13T01:01:11;19.13;;;7.43;;
19183;SDS011;9724;51.194;6.856;2023-10-13T01:03:45;11.30;;;7.20;;
19183;SDS011;9724;51.194;6.856;2023-10-13T01:06:14;16.40;;;7.40;;
19183;SDS011;9724;51.194;6.856;2023-10-13T01:08:42;15.93;;;7.60;;
19183;SDS011;9724;51.194;6.856;2023-10-13T01:11:09;16.63;;;8.40;;
19183;SDS011;9724;51.194;6.856;2023-10-13T01:13:36;11.93;;;7.67;;
19183;SDS011;9724;51.194;6.856;2023-10-13T01:16:03;11.77;;;7.40;;
19183;SDS011;9724;51.194;6.856;2023-10-13T01:18:30;12.03;;;7.77;;
19183;SDS011;9724;51.194;6.856;2023-10-13T01:20:56;15.63;;;7.53;;
19183;SDS011;9724;51.194;6.856;2023-10-13T01:23:26;11.87;;;7.17;;
19183;SDS011;9724;51.194;6.856;2023-10-13T01:25:54;14.60;;;7.70;;
19183;SDS011;9724;51.194;6.856;2023-10-13T01:28:21;12.50;;;7.60;;
19183;SDS011;9724;51.194;6.856;2023-10-13T01:30:47;11.57;;;8.17;;
19183;SDS011;9724;51.194;6.856;2023-10-13T01:33:16;12.60;;;7.73;;
19183;SDS011;9724;51.194;6.856;2023-10-13T01:35:42;13.17;;;8.37;;
19183;SDS011;9724;51.194;6.856;2023-10-13T01:38:13;11.93;;;7.63;;
19183;SDS011;9724;51.194;6.856;2023-10-13T01:40:40;13.27;;;7.63;;
19183;SDS011;9724;51.194;6.856;2023-10-13T01:43:09;14.17;;;8.03;;
19183;SDS011;9724;51.194;6.856;2023-10-13T01:45:37;14.83;;;7.20;;
19183;SDS011;9724;51.194;6.856;2023-10-13T01:48:12;10.47;;;7.73;;
19183;SDS011;9724;51.194;6.856;2023-10-13T01:50:41;17.20;;;8.80;;
19183;SDS011;9724;51.194;6.856;2023-10-13T01:53:07;19.90;;;8.27;;
19183;SDS011;9724;51.194;6.856;2023-10-13T01:55:37;16.57;;;8.27;;
19183;SDS011;9724;51.194;6.856;2023-10-13T01:58:09;16.43;;;8.33;;
19183;SDS011;9724;51.194;6.856;2023-10-13T02:00:40;14.00;;;8.23;;
19183;SDS011;9724;51.194;6.856;2023-10-13T02:03:08;18.47;;;7.70;;
19183;SDS011;9724;51.194;6.856;2023-10-13T02:05:41;12.97;;;8.27;;
19183;SDS011;9724;51.194;6.856;2023-10-13T02:08:12;16.80;;;8.00;;
19183;SDS011;9724;51.194;6.856;2023-10-13T02:10:44;18.00;;;8.83;;
19183;SDS011;9724;51.194;6.856;2023-10-13T02:13:13;16.40;;;8.27;;
19183;SDS011;9724;51.194;6.856;2023-10-13T02:15:42;11.77;;;7.30;;
19183;SDS011;9724;51.194;6.856;2023-10-13T02:18:10;11.53;;;7.90;;
19183;SDS011;9724;51.194;6.856;2023-10-13T02:20:38;13.90;;;8.37;;
19183;SDS011;9724;51.194;6.856;2023-10-13T02:23:09;11.77;;;7.93;;
19183;SDS011;9724;51.194;6.856;2023-10-13T02:25:36;14.70;;;8.50;;
19183;SDS011;9724;51.194;6.856;2023-10-13T02:28:08;10.27;;;7.93;;
19183;SDS011;9724;51.194;6.856;2023-10-13T02:30:40;17.60;;;8.70;;
19183;SDS011;9724;51.194;6.856;2023-10-13T02:33:11;17.63;;;7.93;;
19183;SDS011;9724;51.194;6.856;2023-10-13T02:35:38;15.57;;;8.40;;
19183;SDS011;9724;51.194;6.856;2023-10-13T02:38:07;16.60;;;8.37;;
19183;SDS011;9724;51.194;6.856;2023-10-13T02:40:37;17.00;;;8.43;;
19183;SDS011;9724;51.194;6.856;2023-10-13T02:43:03;18.23;;;9.23;;
19183;SDS011;9724;51.194;6.856;2023-10-13T02:45:31;15.87;;;8.57;;
19183;SDS011;9724;51.194;6.856;2023-10-13T02:47:58;20.97;;;9.17;;
19183;SDS011;9724;51.194;6.856;2023-10-13T02:50:39;15.10;;;9.30;;
19183;SDS011;9724;51.194;6.856;2023-10-13T02:53:09;17.33;;;8.87;;
19183;SDS011;9724;51.194;6.856;2023-10-13T02:55:38;16.77;;;9.30;;
19183;SDS011;9724;51.194;6.856;2023-10-13T02:58:14;19.27;;;9.77;;
19183;SDS011;9724;51.194;6.856;2023-10-13T03:00:40;16.37;;;9.50;;
19183;SDS011;9724;51.194;6.856;2023-10-13T03:03:07;19.90;;;10.00;;
19183;SDS011;9724;51.194;6.856;2023-10-13T03:05:34;19.63;;;10.17;;
19183;SDS011;9724;51.194;6.856;2023-10-13T03:08:01;16.67;;;9.77;;
19183;SDS011;9724;51.194;6.856;2023-10-13T03:10:29;19.27;;;10.03;;
19183;SDS011;9724;51.194;6.856;2023-10-13T03:12:56;15.70;;;10.30;;
19183;SDS011;9724;51.194;6.856;2023-10-13T03:15:22;18.43;;;10.13;;
19183;SDS011;9724;51.194;6.856;2023-10-13T03:17:55;17.87;;;10.30;;
19183;SDS011;9724;51.194;6.856;2023-10-13T03:20:24;17.23;;;10.20;;
19183;SDS011;9724;51.194;6.856;2023-10-13T03:22:57;24.20;;;10.20;;
19183;SDS011;9724;51.194;6.856;2023-10-13T03:25:23;19.87;;;10.10;;
19183;SDS011;9724;51.194;6.856;2023-10-13T03:27:55;17.07;;;9.93;;
19183;SDS011;9724;51.194;6.856;2023-10-13T03:30:28;21.83;;;10.70;;
19183;SDS011;9724;51.194;6.856;2023-10-13T03:33:07;17.63;;;10.70;;
19183;SDS011;9724;51.194;6.856;2023-10-13T03:35:37;21.53;;;10.93;;
19183;SDS011;9724;51.194;6.856;2023-10-13T03:38:06;18.17;;;11.50;;
19183;SDS011;9724;51.194;6.856;2023-10-13T03:40:42;21.03;;;10.87;;
19183;SDS011;9724;51.194;6.856;2023-10-13T03:43:14;19.10;;;11.10;;
19183;SDS011;9724;51.194;6.856;2023-10-13T03:45:48;13.73;;;10.53;;
19183;SDS011;9724;51.194;6.856;2023-10-13T03:48:26;16.43;;;10.17;;
19183;SDS011;9724;51.194;6.856;2023-10-13T03:50:58;23.00;;;11.17;;
19183;SDS011;9724;51.194;6.856;2023-10-13T03:53:29;22.60;;;11.13;;
19183;SDS011;9724;51.194;6.856;2023-10-13T03:55:59;21.73;;;10.07;;
19183;SDS011;9724;51.194;6.856;2023-10-13T03:58:33;18.67;;;10.50;;
19183;SDS011;9724;51.194;6.856;2023-10-13T04:01:00;18.90;;;11.07;;
19183;SDS011;9724;51.194;6.856;2023-10-13T04:03:27;26.33;;;11.00;;
19183;SDS011;9724;51.194;6.856;2023-10-13T04:06:05;23.27;;;10.47;;
19183;SDS011;9724;51.194;6.856;2023-10-13T04:08:32;18.53;;;10.47;;
19183;SDS011;9724;51.194;6.856;2023-10-13T04:11:15;18.17;;;10.63;;
19183;SDS011;9724;51.194;6.856;2023-10-13T04:14:00;21.67;;;11.03;;
19183;SDS011;9724;51.194;6.856;2023-10-13T04:16:44;27.63;;;11.17;;
19183;SDS011;9724;51.194;6.856;2023-10-13T04:19:17;21.93;;;11.37;;
19183;SDS011;9724;51.194;6.856;2023-10-13T04:21:52;22.10;;;11.57;;
19183;SDS011;9724;51.194;6.856;2023-10-13T04:24:23;24.03;;;11.83;;
19183;SDS011;9724;51.194;6.856;2023-10-13T04:27:08;17.80;;;11.20;;
19183;SDS011;9724;51.194;6.856;2023-10-13T04:29:52;22.03;;;12.10;;
19183;SDS011;9724;51.194;6.856;2023-10-13T04:32:35;23.60;;;11.47;;
19183;SDS011;9724;51.194;6.856;2023-10-13T04:35:04;19.07;;;11.93;;
19183;SDS011;9724;51.194;6.856;2023-10-13T04:37:36;24.43;;;11.47;;
19183;SDS011;9724;51.194;6.856;2023-10-13T04:40:15;20.57;;;11.40;;
19183;SDS011;9724;51.194;6.856;2023-10-13T04:42:43;20.40;;;11.53;;
19183;SDS011;9724;51.194;6.856;2023-10-13T04:45:16;17.73;;;10.73;;
19183;SDS011;9724;51.194;6.856;2023-10-13T04:48:04;21.23;;;11.23;;
19183;SDS011;9724;51.194;6.856;2023-10-13T04:50:44;21.43;;;12.20;;
19183;SDS011;9724;51.194;6.856;2023-10-13T04:53:12;23.57;;;13.07;;
19183;SDS011;9724;51.194;6.856;2023-10-13T04:55:54;25.03;;;13.20;;
19183;SDS011;9724;51.194;6.856;2023-10-13T04:58:34;22.70;;;12.73;;
19183;SDS011;9724;51.194;6.856;2023-10-13T05:01:27;28.33;;;12.93;;
19183;SDS011;9724;51.194;6.856;2023-10-13T05:04:11;28.90;;;13.17;;
19183;SDS011;9724;51.194;6.856;2023-10-13T05:06:48;22.97;;;12.60;;
19183;SDS011;9724;51.194;6.856;2023-10-13T05:09:38;25.77;;;13.13;;
19183;SDS011;9724;51.194;6.856;2023-10-13T05:12:23;29.33;;;13.27;;
19183;SDS011;9724;51.194;6.856;2023-10-13T05:15:08;23.07;;;13.20;;
19183;SDS011;9724;51.194;6.856;2023-10-13T05:17:52;24.17;;;13.27;;
19183;SDS011;9724;51.194;6.856;2023-10-13T05:20:37;22.87;;;13.33;;
19183;SDS011;9724;51.194;6.856;2023-10-13T05:23:22;22.37;;;12.47;;
19183;SDS011;9724;51.194;6.856;2023-10-13T05:26:07;25.13;;;12.70;;
19183;SDS011;9724;51.194;6.856;2023-10-13T05:28:51;26.57;;;12.27;;
19183;SDS011;9724;51.194;6.856;2023-10-13T05:31:54;25.00;;;12.47;;
19183;SDS011;9724;51.194;6.856;2023-10-13T05:34:38;24.57;;;12.20;;
19183;SDS011;9724;51.194;6.856;2023-10-13T05:37:23;19.83;;;11.90;;
19183;SDS011;9724;51.194;6.856;2023-10-13T05:40:08;22.73;;;12.43;;
19183;SDS011;9724;51.194;6.856;2023-10-13T05:42:54;24.83;;;12.40;;
19183;SDS011;9724;51.194;6.856;2023-10-13T05:45:55;25.13;;;11.83;;
19183;SDS011;9724;51.194;6.856;2023-10-13T05:48:44;21.00;;;11.67;;
19183;SDS011;9724;51.194;6.856;2023-10-13T05:51:35;24.27;;;12.00;;
19183;SDS011;9724;51.194;6.856;2023-10-13T05:54:13;25.37;;;12.33;;
19183;SDS011;9724;51.194;6.856;2023-10-13T05:56:57;23.30;;;12.77;;
19183;SDS011;9724;51.194;6.856;2023-10-13T05:59:42;25.57;;;11.93;;
19183;SDS011;9724;51.194;6.856;2023-10-13T06:02:35;19.00;;;11.10;;
19183;SDS011;9724;51.194;6.856;2023-10-13T06:05:19;20.80;;;11.43;;
19183;SDS011;9724;51.194;6.856;2023-10-13T06:08:04;23.63;;;11.33;;
19183;SDS011;9724;51.194;6.856;2023-10-13T06:10:49;24.03;;;11.10;;
19183;SDS011;9724;51.194;6.856;2023-10-13T06:13:33;20.57;;;10.87;;
19183;SDS011;9724;51.194;6.856;2023-10-13T06:16:19;22.70;;;12.03;;
19183;SDS011;9724;51.194;6.856;2023-10-13T06:19:04;21.93;;;11.70;;
19183;SDS011;9724;51.194;6.856;2023-10-13T06:21:49;26.80;;;11.27;;
19183;SDS011;9724;51.194;6.856;2023-10-13T06:24:33;22.37;;;11.90;;
19183;SDS011;9724;51.194;6.856;2023-10-13T06:27:18;23.37;;;11.80;;
19183;SDS011;9724;51.194;6.856;2023-10-13T06:30:03;24.40;;;11.03;;
19183;SDS011;9724;51.194;6.856;2023-10-13T06:32:31;22.20;;;11.33;;
19183;SDS011;9724;51.194;6.856;2023-10-13T06:34:59;21.37;;;11.03;;
19183;SDS011;9724;51.194;6.856;2023-10-13T06:37:31;22.77;;;9.50;;
19183;SDS011;9724;51.194;6.856;2023-10-13T06:39:59;22.97;;;10.70;;
19183;SDS011;9724;51.194;6.856;2023-10-13T06:42:32;21.17;;;10.80;;
19183;SDS011;9724;51.194;6.856;2023-10-13T06:45:00;20.00;;;11.03;;
19183;SDS011;9724;51.194;6.856;2023-10-13T06:47:34;18.10;;;10.93;;
19183;SDS011;9724;51.194;6.856;2023-10-13T06:50:05;20.67;;;11.43;;
19183;SDS011;9724;51.194;6.856;2023-10-13T06:52:40;22.30;;;11.13;;
19183;SDS011;9724;51.194;6.856;2023-10-13T06:55:08;23.50;;;10.37;;
19183;SDS011;9724;51.194;6.856;2023-10-13T06:57:35;27.80;;;12.23;;
19183;SDS011;9724;51.194;6.856;2023-10-13T07:00:02;20.93;;;10.80;;
19183;SDS011;9724;51.194;6.856;2023-10-13T07:02:34;21.47;;;10.93;;
19183;SDS011;9724;51.194;6.856;2023-10-13T07:05:00;24.67;;;11.60;;
19183;SDS011;9724;51.194;6.856;2023-10-13T07:07:33;19.73;;;10.43;;
19183;SDS011;9724;51.194;6.856;2023-10-13T07:10:01;17.93;;;11.13;;
19183;SDS011;9724;51.194;6.856;2023-10-13T07:12:27;28.30;;;11.50;;
19183;SDS011;9724;51.194;6.856;2023-10-13T07:14:58;22.87;;;11.50;;
19183;SDS011;9724;51.194;6.856;2023-10-13T07:17:29;21.37;;;11.00;;
19183;SDS011;9724;51.194;6.856;2023-10-13T07:19:59;33.53;;;11.73;;
19183;SDS011;9724;51.194;6.856;2023-10-13T07:22:40;20.67;;;11.10;;
19183;SDS011;9724;51.194;6.856;2023-10-13T07:25:20;23.50;;;11.20;;
19183;SDS011;9724;51.194;6.856;2023-10-13T07:27:49;26.73;;;11.90;;
19183;SDS011;9724;51.194;6.856;2023-10-13T07:30:15;20.47;;;11.47;;
19183;SDS011;9724;51.194;6.856;2023-10-13T07:32:45;25.83;;;10.97;;
19183;SDS011;9724;51.194;6.856;2023-10-13T07:35:15;24.97;;;11.30;;
19183;SDS011;9724;51.194;6.856;2023-10-13T07:37:45;25.40;;;10.63;;
19183;SDS011;9724;51.194;6.856;2023-10-13T07:40:14;20.57;;;10.43;;
19183;SDS011;9724;51.194;6.856;2023-10-13T07:43:05;18.83;;;10.13;;
19183;SDS011;9724;51.194;6.856;2023-10-13T07:45:36;25.77;;;10.13;;
19183;SDS011;9724;51.194;6.856;2023-10-13T07:48:03;23.90;;;9.50;;
19183;SDS011;9724;51.194;6.856;2023-10-13T07:50:38;20.47;;;9.70;;
19183;SDS011;9724;51.194;6.856;2023-10-13T07:53:05;17.10;;;9.17;;
19183;SDS011;9724;51.194;6.856;2023-10-13T07:55:44;18.87;;;9.07;;
19183;SDS011;9724;51.194;6.856;2023-10-13T07:58:12;24.30;;;9.30;;
19183;SDS011;9724;51.194;6.856;2023-10-13T08:00:39;20.57;;;9.40;;
19183;SDS011;9724;51.194;6.856;2023-10-13T08:03:12;25.83;;;8.87;;
19183;SDS011;9724;51.194;6.856;2023-10-13T08:05:58;22.10;;;8.90;;
19183;SDS011;9724;51.194;6.856;2023-10-13T08:08:30;21.97;;;9.00;;
19183;SDS011;9724;51.194;6.856;2023-10-13T08:11:03;14.87;;;8.30;;
19183;SDS011;9724;51.194;6.856;2023-10-13T08:13:37;15.00;;;7.90;;
19183;SDS011;9724;51.194;6.856;2023-10-13T08:16:21;13.10;;;7.70;;
19183;SDS011;9724;51.194;6.856;2023-10-13T08:18:48;23.27;;;8.43;;
19183;SDS011;9724;51.194;6.856;2023-10-13T08:21:15;17.77;;;8.40;;
19183;SDS011;9724;51.194;6.856;2023-10-13T08:23:48;19.10;;;8.40;;
19183;SDS011;9724;51.194;6.856;2023-10-13T08:26:25;17.73;;;8.20;;
19183;SDS011;9724;51.194;6.856;2023-10-13T08:28:55;27.23;;;8.90;;
19183;SDS011;9724;51.194;6.856;2023-10-13T08:31:23;23.73;;;8.30;;
19183;SDS011;9724;51.194;6.856;2023-10-13T08:33:51;26.53;;;7.97;;
19183;SDS011;9724;51.194;6.856;2023-10-13T08:36:31;25.33;;;8.53;;
19183;SDS011;9724;51.194;6.856;2023-10-13T08:38:58;18.57;;;7.90;;
19183;SDS011;9724;51.194;6.856;2023-10-13T08:41:41;22.00;;;7.60;;
19183;SDS011;9724;51.194;6.856;2023-10-13T08:44:19;18.17;;;6.87;;
19183;SDS011;9724;51.194;6.856;2023-10-13T08:47:10;19.00;;;6.93;;
19183;SDS011;9724;51.194;6.856;2023-10-13T08:49:42;23.17;;;6.90;;
19183;SDS011;9724;51.194;6.856;2023-10-13T08:52:17;23.00;;;7.23;;
19183;SDS011;9724;51.194;6.856;2023-10-13T08:54:59;22.63;;;7.40;;
19183;SDS011;9724;51.194;6.856;2023-10-13T08:57:38;21.30;;;6.70;;
19183;SDS011;9724;51.194;6.856;2023-10-13T09:00:08;23.40;;;6.47;;
19183;SDS011;9724;51.194;6.856;2023-10-13T09:03:14;21.63;;;6.90;;
19183;SDS011;9724;51.194;6.856;2023-10-13T09:05:54;18.87;;;7.23;;
19183;SDS011;9724;51.194;6.856;2023-10-13T09:08:27;17.27;;;6.93;;
19183;SDS011;9724;51.194;6.856;2023-10-13T09:11:02;25.80;;;7.27;;
19183;SDS011;9724;51.194;6.856;2023-10-13T09:13:37;22.27;;;6.70;;
19183;SDS011;9724;51.194;6.856;2023-10-13T09:16:10;20.40;;;6.47;;
19183;SDS011;9724;51.194;6.856;2023-10-13T09:18:42;24.90;;;7.53;;
19183;SDS011;9724;51.194;6.856;2023-10-13T09:21:12;17.80;;;6.93;;
19183;SDS011;9724;51.194;6.856;2023-10-13T09:24:09;16.97;;;6.00;;
19183;SDS011;9724;51.194;6.856;2023-10-13T09:26:47;23.13;;;6.10;;
19183;SDS011;9724;51.194;6.856;2023-10-13T09:29:15;19.97;;;5.73;;
19183;SDS011;9724;51.194;6.856;2023-10-13T09:31:58;20.50;;;5.67;;
19183;SDS011;9724;51.194;6.856;2023-10-13T09:34:26;16.23;;;5.23;;
19183;SDS011;9724;51.194;6.856;2023-10-13T09:36:57;21.47;;;6.20;;
19183;SDS011;9724;51.194;6.856;2023-10-13T09:39:24;17.37;;;5.97;;
19183;SDS011;9724;51.194;6.856;2023-10-13T09:42:00;19.17;;;5.50;;
19183;SDS011;9724;51.194;6.856;2023-10-13T09:44:29;19.80;;;5.07;;
19183;SDS011;9724;51.194;6.856;2023-10-13T09:47:00;18.97;;;5.23;;
19183;SDS011;9724;51.194;6.856;2023-10-13T09:49:35;16.93;;;5.60;;
19183;SDS011;9724;51.194;6.856;2023-10-13T09:52:13;10.87;;;5.53;;
19183;SDS011;9724;51.194;6.856;2023-10-13T09:54:48;18.93;;;5.90;;
19183;SDS011;9724;51.194;6.856;2023-10-13T09:57:26;23.63;;;5.87;;
19183;SDS011;9724;51.194;6.856;2023-10-13T10:00:02;13.20;;;5.40;;
19183;SDS011;9724;51.194;6.856;2023-10-13T10:02:53;15.93;;;5.60;;
19183;SDS011;9724;51.194;6.856;2023-10-13T10:05:24;13.20;;;4.97;;
19183;SDS011;9724;51.194;6.856;2023-10-13T10:07:54;14.67;;;5.47;;
19183;SDS011;9724;51.194;6.856;2023-10-13T10:10:22;11.40;;;5.33;;
19183;SDS011;9724;51.194;6.856;2023-10-13T10:12:54;13.93;;;5.33;;
19183;SDS011;9724;51.194;6.856;2023-10-13T10:15:26;14.17;;;5.53;;
19183;SDS011;9724;51.194;6.856;2023-10-13T10:17:56;12.73;;;5.43;;
19183;SDS011;9724;51.194;6.856;2023-10-13T10:20:27;19.03;;;5.63;;
19183;SDS011;9724;51.194;6.856;2023-10-13T10:23:05;19.30;;;6.03;;
19183;SDS011;9724;51.194;6.856;2023-10-13T10:25:38;14.77;;;6.33;;
19183;SDS011;9724;51.194;6.856;2023-10-13T10:28:10;17.83;;;6.60;;
19183;SDS011;9724;51.194;6.856;2023-10-13T10:30:41;10.93;;;5.90;;
19183;SDS011;9724;51.194;6.856;2023-10-13T10:33:09;17.80;;;6.63;;
19183;SDS011;9724;51.194;6.856;2023-10-13T10:35:38;23.17;;;6.37;;
19183;SDS011;9724;51.194;6.856;2023-10-13T10:38:09;15.60;;;5.93;;
19183;SDS011;9724;51.194;6.856;2023-10-13T10:40:48;14.70;;;6.40;;
19183;SDS011;9724;51.194;6.856;2023-10-13T10:43:17;26.53;;;7.03;;
19183;SDS011;9724;51.194;6.856;2023-10-13T10:45:59;16.60;;;6.60;;
19183;SDS011;9724;51.194;6.856;2023-10-13T10:48:25;20.77;;;6.70;;
19183;SDS011;9724;51.194;6.856;2023-10-13T10:50:58;20.17;;;6.27;;
19183;SDS011;9724;51.194;6.856;2023-10-13T10:53:31;12.03;;;6.00;;
19183;SDS011;9724;51.194;6.856;2023-10-13T10:56:06;20.40;;;6.33;;
19183;SDS011;9724;51.194;6.856;2023-10-13T10:58:45;18.43;;;6.83;;
19183;SDS011;9724;51.194;6.856;2023-10-13T11:01:12;13.00;;;6.53;;
19183;SDS011;9724;51.194;6.856;2023-10-13T11:03:52;20.13;;;6.33;;
19183;SDS011;9724;51.194;6.856;2023-10-13T11:06:20;11.17;;;6.17;;
19183;SDS011;9724;51.194;6.856;2023-10-13T11:08:49;21.33;;;6.47;;
19183;SDS011;9724;51.194;6.856;2023-10-13T11:11:28;16.40;;;6.30;;
19183;SDS011;9724;51.194;6.856;2023-10-13T11:13:59;14.13;;;5.90;;
19183;SDS011;9724;51.194;6.856;2023-10-13T11:16:45;16.60;;;6.40;;
19183;SDS011;9724;51.194;6.856;2023-10-13T11:19:16;20.93;;;6.10;;
19183;SDS011;9724;51.194;6.856;2023-10-13T11:21:46;19.23;;;6.93;;
19183;SDS011;9724;51.194;6.856;2023-10-13T11:24:13;17.93;;;6.60;;
19183;SDS011;9724;51.194;6.856;2023-10-13T11:26:41;19.67;;;6.70;;
19183;SDS011;9724;51.194;6.856;2023-10-13T11:29:14;22.10;;;5.70;;
19183;SDS011;9724;51.194;6.856;2023-10-13T11:31:44;24.23;;;7.07;;
19183;SDS011;9724;51.194;6.856;2023-10-13T11:34:11;16.87;;;6.07;;
19183;SDS011;9724;51.194;6.856;2023-10-13T11:36:42;22.93;;;6.57;;
19183;SDS011;9724;51.194;6.856;2023-10-13T11:39:09;21.03;;;6.47;;
19183;SDS011;9724;51.194;6.856;2023-10-13T11:41:43;22.83;;;5.87;;
19183;SDS011;9724;51.194;6.856;2023-10-13T11:44:19;25.87;;;6.27;;
19183;SDS011;9724;51.194;6.856;2023-10-13T11:46:49;16.73;;;5.80;;
19183;SDS011;9724;51.194;6.856;2023-10-13T11:49:22;26.70;;;6.67;;
19183;SDS011;9724;51.194;6.856;2023-10-13T11:52:00;29.60;;;5.70;;
19183;SDS011;9724;51.194;6.856;2023-10-13T11:54:42;24.80;;;6.17;;
19183;SDS011;9724;51.194;6.856;2023-10-13T11:57:10;23.13;;;5.77;;
19183;SDS011;9724;51.194;6.856;2023-10-13T11:59:36;30.23;;;6.00;;
19183;SDS011;9724;51.194;6.856;2023-10-13T12:02:11;16.77;;;4.90;;
19183;SDS011;9724;51.194;6.856;2023-10-13T12:04:56;25.47;;;5.60;;
19183;SDS011;9724;51.194;6.856;2023-10-13T12:07:23;16.53;;;5.07;;
19183;SDS011;9724;51.194;6.856;2023-10-13T12:09:52;25.47;;;5.77;;
19183;SDS011;9724;51.194;6.856;2023-10-13T12:12:30;25.13;;;5.57;;
19183;SDS011;9724;51.194;6.856;2023-10-13T12:14:56;20.40;;;6.07;;
19183;SDS011;9724;51.194;6.856;2023-10-13T12:17:24;21.60;;;5.77;;
19183;SDS011;9724;51.194;6.856;2023-10-13T12:19:54;23.23;;;5.53;;
19183;SDS011;9724;51.194;6.856;2023-10-13T12:22:20;35.77;;;5.53;;
19183;SDS011;9724;51.194;6.856;2023-10-13T12:24:54;17.07;;;5.00;;
19183;SDS011;9724;51.194;6.856;2023-10-13T12:27:20;23.43;;;5.13;;
19183;SDS011;9724;51.194;6.856;2023-10-13T12:29:50;22.27;;;6.03;;
19183;SDS011;9724;51.194;6.856;2023-10-13T12:32:17;24.03;;;5.50;;
19183;SDS011;9724;51.194;6.856;2023-10-13T12:34:48;21.40;;;6.00;;
19183;SDS011;9724;51.194;6.856;2023-10-13T12:37:26;27.83;;;5.27;;
19183;SDS011;9724;51.194;6.856;2023-10-13T12:40:16;23.67;;;5.77;;
19183;SDS011;9724;51.194;6.856;2023-10-13T12:43:01;20.10;;;5.53;;
19183;SDS011;9724;51.194;6.856;2023-10-13T12:45:47;23.50;;;5.70;;
19183;SDS011;9724;51.194;6.856;2023-10-13T12:48:34;16.63;;;5.40;;
19183;SDS011;9724;51.194;6.856;2023-10-13T12:51:19;15.57;;;5.30;;
19183;SDS011;9724;51.194;6.856;2023-10-13T12:53:46;18.70;;;5.47;;
19183;SDS011;9724;51.194;6.856;2023-10-13T12:56:13;18.47;;;5.30;;
19183;SDS011;9724;51.194;6.856;2023-10-13T12:58:39;14.80;;;5.60;;
19183;SDS011;9724;51.194;6.856;2023-10-13T13:01:07;31.30;;;5.70;;
19183;SDS011;9724;51.194;6.856;2023-10-13T13:03:34;19.37;;;5.60;;
19183;SDS011;9724;51.194;6.856;2023-10-13T13:06:01;19.60;;;5.90;;
19183;SDS011;9724;51.194;6.856;2023-10-13T13:08:32;23.93;;;5.80;;
19183;SDS011;9724;51.194;6.856;2023-10-13T13:11:01;18.83;;;5.57;;
19183;SDS011;9724;51.194;6.856;2023-10-13T13:13:27;18.07;;;5.47;;
19183;SDS011;9724;51.194;6.856;2023-10-13T13:15:54;18.00;;;5.20;;
19183;SDS011;9724;51.194;6.856;2023-10-13T13:18:21;22.77;;;5.90;;
19183;SDS011;9724;51.194;6.856;2023-10-13T13:20:47;22.80;;;5.57;;
19183;SDS011;9724;51.194;6.856;2023-10-13T13:23:18;24.93;;;6.37;;
19183;SDS011;9724;51.194;6.856;2023-10-13T13:25:45;15.37;;;5.23;;
19183;SDS011;9724;51.194;6.856;2023-10-13T13:28:11;20.73;;;5.87;;
19183;SDS011;9724;51.194;6.856;2023-10-13T13:30:37;27.67;;;5.37;;
19183;SDS011;9724;51.194;6.856;2023-10-13T13:33:04;17.57;;;5.90;;
19183;SDS011;9724;51.194;6.856;2023-10-13T13:35:37;20.33;;;5.70;;
19183;SDS011;9724;51.194;6.856;2023-10-13T13:38:03;28.00;;;5.97;;
19183;SDS011;9724;51.194;6.856;2023-10-13T13:40:38;25.53;;;6.17;;
19183;SDS011;9724;51.194;6.856;2023-10-13T13:43:04;17.33;;;5.67;;
19183;SDS011;9724;51.194;6.856;2023-10-13T13:45:32;25.43;;;5.27;;
19183;SDS011;9724;51.194;6.856;2023-10-13T13:48:00;16.60;;;5.30;;
19183;SDS011;9724;51.194;6.856;2023-10-13T13:50:33;21.17;;;5.30;;
19183;SDS011;9724;51.194;6.856;2023-10-13T13:53:06;17.47;;;4.97;;
19183;SDS011;9724;51.194;6.856;2023-10-13T13:55:35;14.67;;;5.60;;
19183;SDS011;9724;51.194;6.856;2023-10-13T13:58:03;18.50;;;5.70;;
19183;SDS011;9724;51.194;6.856;2023-10-13T14:00:33;22.50;;;5.30;;
19183;SDS011;9724;51.194;6.856;2023-10-13T14:03:03;25.10;;;5.70;;
19183;SDS011;9724;51.194;6.856;2023-10-13T14:05:30;26.77;;;5.53;;
19183;SDS011;9724;51.194;6.856;2023-10-13T14:07:57;25.73;;;6.17;;
19183;SDS011;9724;51.194;6.856;2023-10-13T14:10:23;26.97;;;5.80;;
19183;SDS011;9724;51.194;6.856;2023-10-13T14:12:57;15.20;;;5.00;;
19183;SDS011;9724;51.194;6.856;2023-10-13T14:15:35;24.97;;;5.57;;
19183;SDS011;9724;51.194;6.856;2023-10-13T14:18:09;26.03;;;6.13;;
19183;SDS011;9724;51.194;6.856;2023-10-13T14:20:43;20.50;;;4.97;;
19183;SDS011;9724;51.194;6.856;2023-10-13T14:23:10;35.10;;;6.47;;
19183;SDS011;9724;51.194;6.856;2023-10-13T14:25:38;22.67;;;5.27;;
19183;SDS011;9724;51.194;6.856;2023-10-13T14:28:05;19.63;;;5.27;;
19183;SDS011;9724;51.194;6.856;2023-10-13T14:30:31;21.60;;;5.73;;
19183;SDS011;9724;51.194;6.856;2023-10-13T14:32:58;23.33;;;6.00;;
19183;SDS011;9724;51.194;6.856;2023-10-13T14:35:24;19.67;;;5.13;;
19183;SDS011;9724;51.194;6.856;2023-10-13T14:37:51;21.70;;;5.60;;
19183;SDS011;9724;51.194;6.856;2023-10-13T14:40:18;24.03;;;6.17;;
19183;SDS011;9724;51.194;6.856;2023-10-13T14:42:47;14.90;;;5.87;;
19183;SDS011;9724;51.194;6.856;2023-10-13T14:45:13;26.13;;;5.30;;
19183;SDS011;9724;51.194;6.856;2023-10-13T14:47:42;24.93;;;5.87;;
19183;SDS011;9724;51.194;6.856;2023-10-13T14:50:09;21.97;;;5.67;;
19183;SDS011;9724;51.194;6.856;2023-10-13T14:52:45;23.77;;;5.30;;
19183;SDS011;9724;51.194;6.856;2023-10-13T14:55:11;18.97;;;6.00;;
19183;SDS011;9724;51.194;6.856;2023-10-13T14:57:45;18.00;;;5.40;;
19183;SDS011;9724;51.194;6.856;2023-10-13T15:00:13;16.90;;;5.80;;
19183;SDS011;9724;51.194;6.856;2023-10-13T15:02:43;17.33;;;5.03;;
19183;SDS011;9724;51.194;6.856;2023-10-13T15:05:09;14.10;;;5.27;;
19183;SDS011;9724;51.194;6.856;2023-10-13T15:07:42;19.13;;;4.70;;
19183;SDS011;9724;51.194;6.856;2023-10-13T15:10:11;25.37;;;5.93;;
19183;SDS011;9724;51.194;6.856;2023-10-13T15:12:40;21.47;;;5.30;;
19183;SDS011;9724;51.194;6.856;2023-10-13T15:15:08;24.73;;;5.03;;
19183;SDS011;9724;51.194;6.856;2023-10-13T15:17:39;17.10;;;5.17;;